Time;durP1;ratioP1;P1;durP2;ratioP2;P2;SDS_P1;SDS_P2;PMS_P1;PMS_P2;Temp;Humidity;BMP_temperature;BMP_pressure;BME280_temperature;BME280_humidity;BME280_pressure;Samples;Min_cycle;Max_cycle;Signal;HPM_P1;HPM_P2
2024/03/17 00:01:33;;;;;;;9.98;4.20;;;;;;;;;;6180138;23;20643;-88
2024/03/17 00:04:39;;;;;;;12.80;6.07;;;;;;;;;;6176906;23;20184;-88
2024/03/17 00:07:44;;;;;;;8.63;4.43;;;;;;;;;;6177741;23;20663;-88
2024/03/17 00:10:51;;;;;;;10.27;4.97;;;;;;;;;;6179678;23;20223;-91
2024/03/17 00:13:55;;;;;;;8.90;4.60;;;;;;;;;;6178794;23;20242;-89
2024/03/17 00:17:00;;;;;;;8.52;4.68;;;;;;;;;;6179070;23;20206;-88
2024/03/17 00:20:08;;;;;;;9.25;4.28;;;;;;;;;;6177010;23;20299;-89
2024/03/17 00:23:18;;;;;;;11.50;5.25;;;;;;;;;;6178164;23;20508;-89
2024/03/17 00:26:23;;;;;;;9.27;4.85;;;;;;;;;;6177492;23;20171;-87
2024/03/17 00:29:29;;;;;;;9.85;4.88;;;;;;;;;;6178769;23;20241;-89
2024/03/17 00:32:34;;;;;;;9.93;4.65;;;;;;;;;;6196481;23;20172;-88
2024/03/17 00:35:39;;;;;;;9.48;4.65;;;;;;;;;;6178991;23;20180;-89
2024/03/17 00:38:45;;;;;;;8.95;4.85;;;;;;;;;;6179444;23;20156;-90
2024/03/17 00:41:50;;;;;;;10.18;4.85;;;;;;;;;;6177876;23;20175;-88
2024/03/17 00:44:55;;;;;;;9.48;4.93;;;;;;;;;;6177713;23;20203;-89
2024/03/17 00:48:00;;;;;;;11.30;5.63;;;;;;;;;;6177193;23;20627;-90
2024/03/17 00:51:06;;;;;;;10.13;5.20;;;;;;;;;;6177976;23;20171;-89
2024/03/17 00:54:11;;;;;;;13.07;5.38;;;;;;;;;;6177916;23;20187;-91
2024/03/17 00:57:17;;;;;;;10.98;5.57;;;;;;;;;;6176358;23;20175;-88
2024/03/17 01:00:21;;;;;;;41.95;18.70;;;;;;;;;;6177438;23;20156;-88
2024/03/17 01:03:26;;;;;;;14.05;6.55;;;;;;;;;;6177134;23;20172;-89
2024/03/17 01:06:34;;;;;;;15.30;7.38;;;;;;;;;;6177578;23;20168;-89
2024/03/17 01:09:38;;;;;;;15.32;6.70;;;;;;;;;;6176832;23;20168;-89
2024/03/17 01:12:45;;;;;;;15.20;6.70;;;;;;;;;;6178408;23;20219;-88
2024/03/17 01:15:53;;;;;;;16.25;6.75;;;;;;;;;;6177882;23;20497;-88
2024/03/17 01:18:57;;;;;;;12.93;6.30;;;;;;;;;;6177995;23;20243;-89
2024/03/17 01:22:03;;;;;;;21.10;8.13;;;;;;;;;;6177741;23;20179;-90
2024/03/17 01:25:08;;;;;;;15.85;7.10;;;;;;;;;;6178146;23;20167;-88
2024/03/17 01:28:18;;;;;;;20.48;9.25;;;;;;;;;;6175828;23;20176;-89
2024/03/17 01:31:22;;;;;;;15.30;6.88;;;;;;;;;;6175207;23;20247;-88
2024/03/17 01:34:27;;;;;;;18.17;7.40;;;;;;;;;;6176380;23;20196;-88
2024/03/17 01:37:33;;;;;;;16.77;6.57;;;;;;;;;;6176968;23;20183;-89
2024/03/17 01:40:38;;;;;;;19.58;6.40;;;;;;;;;;6174572;23;20168;-90
2024/03/17 01:43:43;;;;;;;15.43;6.88;;;;;;;;;;6177143;23;20172;-90
2024/03/17 01:46:48;;;;;;;18.30;6.13;;;;;;;;;;6174399;23;20172;-90
2024/03/17 01:49:54;;;;;;;15.70;6.65;;;;;;;;;;6176445;23;20172;-89
2024/03/17 01:53:01;;;;;;;17.15;7.13;;;;;;;;;;6176216;23;20164;-87
2024/03/17 01:56:06;;;;;;;25.48;6.90;;;;;;;;;;6175554;23;20164;-88
2024/03/17 01:59:10;;;;;;;14.27;6.18;;;;;;;;;;6175120;23;20152;-87
2024/03/17 02:02:14;;;;;;;17.48;7.90;;;;;;;;;;6175424;23;20168;-87
2024/03/17 02:05:18;;;;;;;18.38;8.45;;;;;;;;;;6175898;23;20155;-89
2024/03/17 02:08:25;;;;;;;12.70;5.70;;;;;;;;;;6175249;23;20203;-87
2024/03/17 02:11:31;;;;;;;14.07;6.63;;;;;;;;;;6176365;23;20171;-89
2024/03/17 02:14:37;;;;;;;12.02;6.35;;;;;;;;;;6175909;23;20432;-87
2024/03/17 02:17:41;;;;;;;17.02;7.00;;;;;;;;;;6176523;23;20492;-90
2024/03/17 02:20:59;;;;;;;15.15;6.68;;;;;;;;;;6177120;23;20180;-89
2024/03/17 02:24:06;;;;;;;13.65;6.32;;;;;;;;;;6179811;23;20163;-88
2024/03/17 02:27:10;;;;;;;12.23;6.28;;;;;;;;;;6177986;23;20164;-88
2024/03/17 02:30:15;;;;;;;14.25;6.10;;;;;;;;;;6177781;23;20224;-89
2024/03/17 02:33:22;;;;;;;15.57;6.50;;;;;;;;;;6176228;23;20172;-88
2024/03/17 02:36:27;;;;;;;11.05;5.72;;;;;;;;;;6176788;23;20152;-89
2024/03/17 02:39:37;;;;;;;13.15;5.57;;;;;;;;;;6177635;23;20577;-89
2024/03/17 02:42:44;;;;;;;19.60;7.68;;;;;;;;;;6183137;23;20172;-89
2024/03/17 02:45:49;;;;;;;18.98;7.68;;;;;;;;;;6176490;23;20167;-87
2024/03/17 02:48:56;;;;;;;15.48;6.05;;;;;;;;;;6176738;23;20163;-90
2024/03/17 02:52:00;;;;;;;11.40;5.53;;;;;;;;;;6177600;23;20164;-91
2024/03/17 02:55:07;;;;;;;13.60;5.95;;;;;;;;;;6176144;23;20694;-88
2024/03/17 02:58:12;;;;;;;12.38;6.43;;;;;;;;;;6176085;23;20235;-89
2024/03/17 03:01:18;;;;;;;14.10;6.70;;;;;;;;;;6174064;23;20276;-89
2024/03/17 03:04:23;;;;;;;14.10;6.90;;;;;;;;;;6176515;23;20171;-88
2024/03/17 03:07:28;;;;;;;19.65;6.63;;;;;;;;;;6176763;23;20234;-88
2024/03/17 03:10:35;;;;;;;16.88;6.28;;;;;;;;;;6177134;23;20172;-89
2024/03/17 03:13:40;;;;;;;15.10;6.63;;;;;;;;;;6177217;23;20184;-89
2024/03/17 03:16:45;;;;;;;11.77;6.43;;;;;;;;;;6175661;23;20180;-89
2024/03/17 03:19:50;;;;;;;15.27;6.10;;;;;;;;;;6177389;23;20159;-89
2024/03/17 03:22:56;;;;;;;12.73;6.00;;;;;;;;;;6176084;23;20171;-88
2024/03/17 03:26:03;;;;;;;12.60;6.38;;;;;;;;;;6177032;23;20184;-88
2024/03/17 03:29:10;;;;;;;13.48;5.85;;;;;;;;;;6177348;23;20272;-89
2024/03/17 03:32:15;;;;;;;19.70;6.75;;;;;;;;;;6174792;23;20167;-86
2024/03/17 03:35:21;;;;;;;13.93;6.75;;;;;;;;;;6194805;23;20184;-88
2024/03/17 03:38:26;;;;;;;13.93;6.35;;;;;;;;;;6176246;23;20169;-90
2024/03/17 03:41:33;;;;;;;15.97;6.40;;;;;;;;;;6176622;23;20172;-90
2024/03/17 03:44:38;;;;;;;14.40;6.85;;;;;;;;;;6175915;23;20192;-89
2024/03/17 03:47:42;;;;;;;14.47;6.40;;;;;;;;;;6174816;23;20603;-89
2024/03/17 03:50:48;;;;;;;14.98;6.78;;;;;;;;;;6175570;23;20635;-88
2024/03/17 03:53:53;;;;;;;14.00;6.22;;;;;;;;;;6181157;23;20163;-89
2024/03/17 03:57:00;;;;;;;15.00;6.15;;;;;;;;;;6175313;23;20495;-90
2024/03/17 04:00:12;;;;;;;13.07;6.40;;;;;;;;;;6175019;23;20176;-90
2024/03/17 04:03:17;;;;;;;14.63;6.60;;;;;;;;;;6176383;23;20168;-89
2024/03/17 04:06:22;;;;;;;14.63;6.80;;;;;;;;;;6175677;23;20171;-89
2024/03/17 04:09:29;;;;;;;12.97;6.43;;;;;;;;;;6176509;23;20175;-89
2024/03/17 04:12:35;;;;;;;14.53;6.73;;;;;;;;;;6176243;23;20183;-88
2024/03/17 04:15:40;;;;;;;12.90;7.03;;;;;;;;;;6194365;23;20612;-89
2024/03/17 04:18:45;;;;;;;14.77;6.43;;;;;;;;;;6176469;23;20632;-88
2024/03/17 04:21:50;;;;;;;14.57;6.87;;;;;;;;;;6175942;23;20236;-89
2024/03/17 04:24:57;;;;;;;14.93;7.07;;;;;;;;;;6174633;23;20231;-89
2024/03/17 04:28:03;;;;;;;15.27;6.70;;;;;;;;;;6175439;23;20171;-90
2024/03/17 04:31:11;;;;;;;15.17;6.50;;;;;;;;;;6176023;23;20168;-88
2024/03/17 04:34:16;;;;;;;17.70;6.50;;;;;;;;;;6176777;23;20172;-89
2024/03/17 04:37:22;;;;;;;16.20;7.37;;;;;;;;;;6193369;23;20254;-89
2024/03/17 04:40:27;;;;;;;19.23;7.03;;;;;;;;;;6193617;23;20175;-91
2024/03/17 04:43:35;;;;;;;19.47;7.33;;;;;;;;;;6177724;23;20160;-89
2024/03/17 04:46:40;;;;;;;16.47;7.53;;;;;;;;;;6177998;23;20192;-87
2024/03/17 04:49:45;;;;;;;18.17;8.27;;;;;;;;;;6176308;23;20164;-88
2024/03/17 04:52:50;;;;;;;17.07;7.37;;;;;;;;;;6173755;23;20321;-88
2024/03/17 04:56:02;;;;;;;14.90;7.13;;;;;;;;;;6175431;23;20188;-88
2024/03/17 04:59:13;;;;;;;15.73;6.90;;;;;;;;;;6175341;23;20159;-89
2024/03/17 05:02:18;;;;;;;15.57;6.80;;;;;;;;;;6174284;23;20176;-90
2024/03/17 05:05:24;;;;;;;16.57;7.20;;;;;;;;;;6174717;23;20196;-89
2024/03/17 05:08:30;;;;;;;15.80;7.37;;;;;;;;;;6173462;23;20239;-88
2024/03/17 05:11:35;;;;;;;16.45;7.75;;;;;;;;;;6175426;23;20176;-89
2024/03/17 05:14:41;;;;;;;15.30;7.20;;;;;;;;;;6174814;23;20159;-90
2024/03/17 05:17:46;;;;;;;15.25;7.47;;;;;;;;;;6174786;23;20172;-89
2024/03/17 05:20:59;;;;;;;14.37;7.27;;;;;;;;;;6175106;23;20215;-89
2024/03/17 05:24:04;;;;;;;16.93;7.33;;;;;;;;;;6173015;23;20197;-91
2024/03/17 05:27:09;;;;;;;20.33;7.17;;;;;;;;;;6173337;23;20151;-91
2024/03/17 05:30:16;;;;;;;17.53;7.77;;;;;;;;;;6175211;23;20158;-89
2024/03/17 05:33:22;;;;;;;18.20;7.10;;;;;;;;;;6175003;23;20291;-89
2024/03/17 05:36:27;;;;;;;15.73;7.50;;;;;;;;;;6175048;23;20192;-90
2024/03/17 05:39:32;;;;;;;14.63;7.57;;;;;;;;;;6174981;23;20167;-88
2024/03/17 05:42:37;;;;;;;16.83;8.03;;;;;;;;;;6174891;23;20219;-88
2024/03/17 05:45:44;;;;;;;17.65;7.85;;;;;;;;;;6174855;23;20191;-90
2024/03/17 05:48:48;;;;;;;18.15;8.57;;;;;;;;;;6174978;23;20187;-89
2024/03/17 05:51:53;;;;;;;18.08;8.02;;;;;;;;;;6174646;23;20203;-88
2024/03/17 05:54:58;;;;;;;16.15;7.65;;;;;;;;;;6174725;23;20223;-89
2024/03/17 05:58:04;;;;;;;18.53;7.97;;;;;;;;;;6174504;23;20215;-89
2024/03/17 06:01:11;;;;;;;18.33;7.78;;;;;;;;;;6174887;23;20172;-90
2024/03/17 06:04:17;;;;;;;18.25;8.25;;;;;;;;;;6174479;23;20255;-91
2024/03/17 06:07:22;;;;;;;14.48;7.60;;;;;;;;;;6174259;23;20655;-90
2024/03/17 06:10:27;;;;;;;15.73;6.78;;;;;;;;;;6174712;23;20171;-89
2024/03/17 06:13:32;;;;;;;18.17;8.73;;;;;;;;;;6173860;23;20172;-90
2024/03/17 06:16:38;;;;;;;17.90;8.30;;;;;;;;;;6174440;23;20174;-90
2024/03/17 06:19:43;;;;;;;19.17;9.15;;;;;;;;;;6174317;23;20356;-91
2024/03/17 06:22:49;;;;;;;19.60;9.93;;;;;;;;;;6174081;23;20176;-88
2024/03/17 06:25:56;;;;;;;20.02;9.73;;;;;;;;;;6173807;23;20195;-90
2024/03/17 06:29:01;;;;;;;20.70;9.70;;;;;;;;;;6172628;23;20599;-89
2024/03/17 06:32:08;;;;;;;20.77;10.10;;;;;;;;;;6173757;23;20624;-89
2024/03/17 06:35:15;;;;;;;18.30;9.20;;;;;;;;;;6174437;23;20265;-90
2024/03/17 06:38:20;;;;;;;17.40;9.32;;;;;;;;;;6174342;23;20172;-89
2024/03/17 06:41:25;;;;;;;21.25;9.20;;;;;;;;;;6173367;23;20254;-89
2024/03/17 06:44:32;;;;;;;23.80;9.60;;;;;;;;;;6176704;23;20167;-89
2024/03/17 06:47:39;;;;;;;16.85;9.70;;;;;;;;;;6173794;23;20220;-89
2024/03/17 06:50:44;;;;;;;20.15;9.95;;;;;;;;;;6174670;23;20240;-89
2024/03/17 06:53:50;;;;;;;19.25;10.10;;;;;;;;;;6183648;23;20160;-90
2024/03/17 06:56:55;;;;;;;19.80;10.40;;;;;;;;;;6174677;23;20199;-88
2024/03/17 07:00:00;;;;;;;25.65;10.00;;;;;;;;;;6175012;23;20164;-89
2024/03/17 07:03:06;;;;;;;20.17;10.38;;;;;;;;;;6177093;23;20187;-89
2024/03/17 07:06:11;;;;;;;18.70;8.93;;;;;;;;;;6176277;23;20175;-90
2024/03/17 07:09:17;;;;;;;19.90;9.52;;;;;;;;;;6176629;23;20615;-92
2024/03/17 07:12:22;;;;;;;20.58;10.15;;;;;;;;;;6175196;23;20222;-90
2024/03/17 07:15:27;;;;;;;27.23;10.98;;;;;;;;;;6176052;23;20608;-89
2024/03/17 07:18:34;;;;;;;18.38;9.30;;;;;;;;;;6175853;23;20172;-91
2024/03/17 07:21:39;;;;;;;18.83;9.68;;;;;;;;;;6176261;23;20613;-90
2024/03/17 07:24:44;;;;;;;19.20;9.93;;;;;;;;;;6175154;23;20650;-90
2024/03/17 07:27:49;;;;;;;17.52;8.95;;;;;;;;;;6176377;23;20250;-90
2024/03/17 07:30:55;;;;;;;14.82;8.55;;;;;;;;;;6175793;23;20234;-88
2024/03/17 07:34:04;;;;;;;14.80;7.88;;;;;;;;;;6175903;23;20179;-88
2024/03/17 07:37:09;;;;;;;19.00;8.02;;;;;;;;;;6176675;23;20246;-88
2024/03/17 07:40:15;;;;;;;18.48;9.52;;;;;;;;;;6177087;23;20172;-90
2024/03/17 07:43:20;;;;;;;18.15;7.82;;;;;;;;;;6179341;23;20296;-88
2024/03/17 07:46:25;;;;;;;15.50;7.38;;;;;;;;;;6195546;23;20191;-90
2024/03/17 07:49:32;;;;;;;14.75;7.93;;;;;;;;;;6176695;23;20243;-90
2024/03/17 07:52:37;;;;;;;13.77;7.40;;;;;;;;;;6178506;23;20245;-90
2024/03/17 07:55:42;;;;;;;11.32;7.00;;;;;;;;;;6179154;23;20168;-89
2024/03/17 07:58:50;;;;;;;14.30;7.70;;;;;;;;;;6176193;23;20172;-88
2024/03/17 08:01:55;;;;;;;13.20;7.10;;;;;;;;;;6177139;23;20172;-89
2024/03/17 08:05:01;;;;;;;13.05;6.72;;;;;;;;;;6176853;23;20168;-88
2024/03/17 08:08:07;;;;;;;11.45;6.82;;;;;;;;;;6177650;23;20203;-89
2024/03/17 08:11:13;;;;;;;14.38;7.18;;;;;;;;;;6199492;23;20216;-90
2024/03/17 08:14:18;;;;;;;13.00;6.70;;;;;;;;;;6182333;23;20168;-89
2024/03/17 08:17:23;;;;;;;10.45;5.90;;;;;;;;;;6181589;23;20222;-88
2024/03/17 08:20:30;;;;;;;12.93;6.55;;;;;;;;;;6182757;23;20735;-90
2024/03/17 08:23:41;;;;;;;12.35;7.07;;;;;;;;;;6181783;23;20188;-89
2024/03/17 08:26:49;;;;;;;12.88;6.72;;;;;;;;;;6185752;23;20248;-90
2024/03/17 08:29:55;;;;;;;10.93;6.25;;;;;;;;;;6180582;23;20241;-89
2024/03/17 08:33:00;;;;;;;13.02;6.05;;;;;;;;;;6181883;23;20167;-89
2024/03/17 08:36:08;;;;;;;10.57;5.70;;;;;;;;;;6181091;23;20173;-89
2024/03/17 08:39:14;;;;;;;10.35;6.25;;;;;;;;;;6180996;23;20152;-89
2024/03/17 08:42:21;;;;;;;9.43;5.18;;;;;;;;;;6182330;23;20171;-89
2024/03/17 08:45:28;;;;;;;12.02;5.30;;;;;;;;;;6183075;23;20168;-88
2024/03/17 08:48:34;;;;;;;14.27;5.90;;;;;;;;;;6183900;23;20176;-89
2024/03/17 08:51:40;;;;;;;10.25;5.40;;;;;;;;;;6182672;23;20296;-88
2024/03/17 08:54:48;;;;;;;8.75;4.03;;;;;;;;;;6179759;23;20171;-90
2024/03/17 08:57:53;;;;;;;9.60;4.53;;;;;;;;;;6179358;23;20156;-91
2024/03/17 09:00:58;;;;;;;6.10;3.53;;;;;;;;;;6183353;23;20659;-91
2024/03/17 09:04:03;;;;;;;6.93;3.67;;;;;;;;;;6181227;23;20171;-89
2024/03/17 09:07:10;;;;;;;9.73;3.90;;;;;;;;;;6179432;23;20211;-88
2024/03/17 09:10:15;;;;;;;4.20;2.97;;;;;;;;;;6175454;23;20175;-89
2024/03/17 09:13:23;;;;;;;9.10;3.47;;;;;;;;;;6178661;23;20187;-90
2024/03/17 09:16:30;;;;;;;6.30;3.67;;;;;;;;;;6178304;23;20655;-89
2024/03/17 09:19:35;;;;;;;6.63;3.17;;;;;;;;;;6178593;23;20167;-89
2024/03/17 09:22:41;;;;;;;6.63;3.42;;;;;;;;;;6178063;23;20171;-90
2024/03/17 09:25:58;;;;;;;6.65;3.38;;;;;;;;;;6176929;23;20172;-91
2024/03/17 09:29:03;;;;;;;5.90;3.47;;;;;;;;;;6179986;23;20167;-89
2024/03/17 09:32:14;;;;;;;5.95;3.10;;;;;;;;;;6179355;23;20226;-90
2024/03/17 09:35:19;;;;;;;6.53;3.03;;;;;;;;;;6195938;23;20176;-89
2024/03/17 09:38:26;;;;;;;7.10;3.00;;;;;;;;;;6178182;23;20211;-89
2024/03/17 09:41:36;;;;;;;6.13;2.92;;;;;;;;;;6178650;23;20175;-86
2024/03/17 09:44:41;;;;;;;4.90;2.83;;;;;;;;;;6180792;23;20182;-89
2024/03/17 09:47:46;;;;;;;9.38;3.10;;;;;;;;;;6181422;23;20195;-90
2024/03/17 09:50:55;;;;;;;6.18;3.17;;;;;;;;;;6182751;23;20183;-91
2024/03/17 09:54:03;;;;;;;4.22;2.60;;;;;;;;;;6184409;23;20151;-90
2024/03/17 09:57:11;;;;;;;4.72;2.80;;;;;;;;;;6183101;23;20239;-89
2024/03/17 10:00:17;;;;;;;7.05;3.00;;;;;;;;;;6182940;23;20187;-91
2024/03/17 10:03:42;;;;;;;4.57;2.53;;;;;;;;;;6165256;23;20190;-92
2024/03/17 10:06:48;;;;;;;7.10;2.90;;;;;;;;;;6181136;23;20279;-89
2024/03/17 10:10:13;;;;;;;8.43;3.30;;;;;;;;;;6180440;23;20163;-89
2024/03/17 10:13:22;;;;;;;5.10;2.63;;;;;;;;;;6185119;23;20172;-90
2024/03/17 10:16:30;;;;;;;4.85;2.95;;;;;;;;;;6182567;23;20235;-90
2024/03/17 10:19:39;;;;;;;4.35;2.80;;;;;;;;;;6181167;23;20180;-90
2024/03/17 10:23:05;;;;;;;4.40;2.22;;;;;;;;;;6203631;23;20611;-92
2024/03/17 10:29:25;;;;;;;4.32;2.90;;;;;;;;;;5192584;27;20571;-92
2024/03/17 10:32:31;;;;;;;3.90;2.33;;;;;;;;;;5191471;27;20184;-90
2024/03/17 10:35:41;;;;;;;8.50;2.42;;;;;;;;;;5177433;27;20176;-91
2024/03/17 10:38:54;;;;;;;4.18;2.45;;;;;;;;;;5176026;27;20186;-91
2024/03/17 10:42:00;;;;;;;4.57;2.20;;;;;;;;;;5175453;27;20241;-90
2024/03/17 10:45:10;;;;;;;4.80;2.13;;;;;;;;;;5185294;27;20202;-90
2024/03/17 10:48:26;;;;;;;4.97;2.00;;;;;;;;;;5181496;27;20223;-93
2024/03/17 10:51:32;;;;;;;4.07;2.20;;;;;;;;;;5170902;27;20195;-91
2024/03/17 10:54:37;;;;;;;3.80;2.17;;;;;;;;;;5152321;27;20200;-89
2024/03/17 10:57:48;;;;;;;4.18;2.17;;;;;;;;;;5166918;27;20191;-91
2024/03/17 11:00:58;;;;;;;3.92;2.33;;;;;;;;;;5175143;27;20246;-91
2024/03/17 11:04:04;;;;;;;3.55;1.90;;;;;;;;;;5184829;27;20219;-92
2024/03/17 11:07:18;;;;;;;4.43;2.20;;;;;;;;;;5182870;27;20206;-92
2024/03/17 11:10:26;;;;;;;4.38;2.28;;;;;;;;;;5187020;27;20183;-90
2024/03/17 11:13:33;;;;;;;4.63;1.98;;;;;;;;;;5188420;27;20229;-91
2024/03/17 11:16:50;;;;;;;4.10;2.10;;;;;;;;;;5188640;27;20258;-92
2024/03/17 11:20:10;;;;;;;5.65;1.98;;;;;;;;;;5189191;27;20195;-91
2024/03/17 11:23:28;;;;;;;2.78;1.55;;;;;;;;;;5186010;27;20201;-89
2024/03/17 11:26:35;;;;;;;3.97;2.00;;;;;;;;;;5187256;27;20175;-88
2024/03/17 11:33:04;;;;;;;4.43;1.85;;;;;;;;;;5186351;27;20191;-93
2024/03/17 11:36:29;;;;;;;3.88;1.60;;;;;;;;;;5185468;27;20187;-90
2024/03/17 11:39:52;;;;;;;2.90;1.60;;;;;;;;;;5174729;27;20212;-91
2024/03/17 11:43:05;;;;;;;2.80;1.90;;;;;;;;;;5172262;27;20699;-91
2024/03/17 11:46:11;;;;;;;3.15;1.73;;;;;;;;;;5169247;27;20269;-90
2024/03/17 11:49:20;;;;;;;3.95;2.22;;;;;;;;;;5168553;27;20212;-92
2024/03/17 11:52:27;;;;;;;3.47;1.98;;;;;;;;;;5190488;27;20203;-90
2024/03/17 11:55:32;;;;;;;4.00;2.05;;;;;;;;;;5178441;27;20192;-90
2024/03/17 11:58:41;;;;;;;4.03;2.08;;;;;;;;;;5154308;27;20180;-90
2024/03/17 12:01:47;;;;;;;5.93;2.20;;;;;;;;;;5175895;27;20504;-92
2024/03/17 12:04:54;;;;;;;3.92;1.90;;;;;;;;;;5154240;27;20561;-90
2024/03/17 12:07:59;;;;;;;3.05;1.90;;;;;;;;;;5169711;27;20195;-92
2024/03/17 12:11:06;;;;;;;6.15;2.00;;;;;;;;;;5166161;27;20180;-90
2024/03/17 12:14:16;;;;;;;6.93;3.22;;;;;;;;;;5152581;27;20726;-88
2024/03/17 12:17:22;;;;;;;4.72;2.20;;;;;;;;;;5169045;27;20199;-89
2024/03/17 12:20:28;;;;;;;5.57;2.50;;;;;;;;;;5160046;27;20257;-89
2024/03/17 12:23:34;;;;;;;4.65;1.70;;;;;;;;;;5172329;27;20233;-90
2024/03/17 12:26:40;;;;;;;5.00;2.33;;;;;;;;;;5171099;27;20180;-90
2024/03/17 12:29:45;;;;;;;5.22;2.63;;;;;;;;;;5170779;27;20188;-91
2024/03/17 12:32:50;;;;;;;5.78;2.20;;;;;;;;;;5171727;27;20201;-91
2024/03/17 12:36:01;;;;;;;5.10;2.42;;;;;;;;;;5172781;27;20196;-90
2024/03/17 12:39:11;;;;;;;4.28;2.40;;;;;;;;;;5169905;27;20200;-91
2024/03/17 12:42:17;;;;;;;6.40;2.17;;;;;;;;;;5172009;27;20202;-87
2024/03/17 12:45:24;;;;;;;4.43;2.40;;;;;;;;;;5171228;27;20230;-90
2024/03/17 12:48:32;;;;;;;4.93;2.30;;;;;;;;;;5170740;27;20207;-89
2024/03/17 12:51:40;;;;;;;8.52;2.90;;;;;;;;;;5169114;27;20413;-91
2024/03/17 12:54:52;;;;;;;4.63;2.42;;;;;;;;;;5169297;27;20195;-89
2024/03/17 13:01:27;;;;;;;5.18;2.38;;;;;;;;;;5156867;27;20305;-90
2024/03/17 13:04:35;;;;;;;4.20;2.20;;;;;;;;;;5167264;27;20250;-92
2024/03/17 13:07:41;;;;;;;5.20;2.40;;;;;;;;;;5079496;22;20740;-92
2024/03/17 13:10:47;;;;;;;3.63;2.30;;;;;;;;;;5065734;28;20175;-91
2024/03/17 13:13:52;;;;;;;5.35;2.08;;;;;;;;;;5065735;28;20191;-90
2024/03/17 13:16:57;;;;;;;8.38;2.55;;;;;;;;;;5064512;28;20198;-90
2024/03/17 13:20:06;;;;;;;6.47;2.65;;;;;;;;;;5064693;28;20580;-90
2024/03/17 13:23:17;;;;;;;3.33;2.05;;;;;;;;;;5064763;28;20198;-90
2024/03/17 13:26:22;;;;;;;4.70;1.90;;;;;;;;;;5064603;28;20195;-90
2024/03/17 13:29:27;;;;;;;3.95;1.73;;;;;;;;;;5065347;28;20249;-88
2024/03/17 13:32:32;;;;;;;6.30;2.30;;;;;;;;;;5066751;28;20183;-89
2024/03/17 13:35:39;;;;;;;5.18;2.42;;;;;;;;;;5064148;28;20201;-90
2024/03/17 13:38:46;;;;;;;5.88;2.38;;;;;;;;;;5065378;28;20214;-90
2024/03/17 13:41:52;;;;;;;7.70;2.40;;;;;;;;;;5063240;28;20241;-91
2024/03/17 13:44:57;;;;;;;5.35;2.75;;;;;;;;;;5063130;28;20195;-90
2024/03/17 13:48:04;;;;;;;4.30;2.50;;;;;;;;;;5062699;28;20233;-89
2024/03/17 13:51:09;;;;;;;7.95;2.72;;;;;;;;;;5061652;28;20321;-90
2024/03/17 13:54:16;;;;;;;5.47;2.40;;;;;;;;;;5062561;28;20286;-90
2024/03/17 13:57:21;;;;;;;5.07;2.60;;;;;;;;;;5063610;28;20263;-91
2024/03/17 14:00:26;;;;;;;5.43;2.20;;;;;;;;;;5063183;28;20191;-91
2024/03/17 14:03:36;;;;;;;8.93;2.90;;;;;;;;;;5063125;28;20195;-91
2024/03/17 14:06:42;;;;;;;8.98;2.72;;;;;;;;;;5063693;28;20298;-90
2024/03/17 14:09:53;;;;;;;7.07;2.80;;;;;;;;;;5065976;28;20206;-91
2024/03/17 14:12:58;;;;;;;4.47;2.20;;;;;;;;;;5063646;28;20203;-89
2024/03/17 14:16:04;;;;;;;5.20;2.20;;;;;;;;;;5065746;28;20190;-91
2024/03/17 14:19:10;;;;;;;5.03;2.30;;;;;;;;;;5065103;28;20262;-90
2024/03/17 14:22:16;;;;;;;3.97;2.47;;;;;;;;;;5064322;28;20202;-90
2024/03/17 14:25:24;;;;;;;5.03;2.30;;;;;;;;;;5050534;28;20179;-91
2024/03/17 14:28:29;;;;;;;5.78;2.20;;;;;;;;;;5057566;28;20218;-92
2024/03/17 14:31:36;;;;;;;4.47;2.13;;;;;;;;;;5065031;28;20191;-90
2024/03/17 14:34:41;;;;;;;5.38;2.10;;;;;;;;;;5047414;28;20176;-90
2024/03/17 14:37:52;;;;;;;5.18;2.40;;;;;;;;;;5045897;28;20235;-90
2024/03/17 14:40:59;;;;;;;6.68;2.53;;;;;;;;;;5052454;28;20203;-91
2024/03/17 14:44:05;;;;;;;3.13;1.90;;;;;;;;;;5066400;28;20207;-91
2024/03/17 14:47:12;;;;;;;4.22;2.33;;;;;;;;;;5064532;28;20310;-91
2024/03/17 14:50:18;;;;;;;5.68;2.97;;;;;;;;;;5066375;28;20591;-90
2024/03/17 14:53:23;;;;;;;4.00;2.03;;;;;;;;;;5060764;28;20231;-92
2024/03/17 15:34:43;;;;;;;6.18;2.92;;;;;;;;;;5994142;23;20197;-90
2024/03/17 15:37:51;;;;;;;4.53;2.67;;;;;;;;;;4998918;28;20217;-91
2024/03/17 15:41:01;;;;;;;5.63;2.65;;;;;;;;;;4987998;28;20253;-91
2024/03/17 15:44:06;;;;;;;6.82;3.00;;;;;;;;;;4985591;28;20569;-89
2024/03/17 15:47:13;;;;;;;4.97;2.78;;;;;;;;;;4999127;28;20651;-90
2024/03/17 15:50:22;;;;;;;5.90;2.95;;;;;;;;;;5010624;28;20196;-90
2024/03/17 15:53:27;;;;;;;7.63;2.50;;;;;;;;;;4998044;28;20177;-90
2024/03/17 15:56:33;;;;;;;7.90;2.85;;;;;;;;;;4997519;28;20197;-87
2024/03/17 15:59:40;;;;;;;6.70;2.92;;;;;;;;;;5007640;28;20212;-89
2024/03/17 16:02:47;;;;;;;6.28;2.60;;;;;;;;;;5007343;28;20208;-88
2024/03/17 16:05:54;;;;;;;6.10;2.72;;;;;;;;;;4985018;28;20548;-91
2024/03/17 16:09:00;;;;;;;6.18;2.85;;;;;;;;;;4991953;28;20566;-89
2024/03/17 16:12:06;;;;;;;6.28;2.70;;;;;;;;;;4993638;28;20197;-89
2024/03/17 16:15:12;;;;;;;7.15;2.78;;;;;;;;;;4975621;28;20201;-91
2024/03/17 16:18:24;;;;;;;5.38;2.72;;;;;;;;;;4975729;28;20233;-89
2024/03/17 16:21:31;;;;;;;7.05;2.92;;;;;;;;;;4974228;28;20280;-91
2024/03/17 16:24:38;;;;;;;7.10;2.53;;;;;;;;;;4992621;28;20192;-89
2024/03/17 16:27:43;;;;;;;4.97;2.30;;;;;;;;;;4992855;28;20325;-90
2024/03/17 16:30:48;;;;;;;6.25;3.05;;;;;;;;;;4994484;28;20197;-89
2024/03/17 16:33:53;;;;;;;7.68;3.22;;;;;;;;;;4993358;28;20616;-89
2024/03/17 16:37:00;;;;;;;5.22;3.10;;;;;;;;;;4991300;28;20216;-89
2024/03/17 16:40:07;;;;;;;5.50;2.72;;;;;;;;;;4991079;28;20213;-90
2024/03/17 16:43:15;;;;;;;6.93;2.50;;;;;;;;;;5008136;28;20200;-91
2024/03/17 16:46:35;;;;;;;8.15;2.55;;;;;;;;;;5010494;28;20660;-90
2024/03/17 16:49:40;;;;;;;7.47;3.40;;;;;;;;;;4992539;28;20213;-92
2024/03/17 16:52:49;;;;;;;11.10;3.70;;;;;;;;;;4993093;28;20184;-90
2024/03/17 16:55:54;;;;;;;8.48;3.42;;;;;;;;;;5013082;28;20200;-91
2024/03/17 16:58:59;;;;;;;9.43;3.58;;;;;;;;;;4976243;28;20206;-93
2024/03/17 17:02:07;;;;;;;10.10;3.00;;;;;;;;;;4974730;28;20280;-88
2024/03/17 17:05:13;;;;;;;123.47;40.42;;;;;;;;;;4984998;28;20249;-89
2024/03/17 17:08:20;;;;;;;47.92;18.90;;;;;;;;;;4988723;28;20210;-89
2024/03/17 17:11:25;;;;;;;17.88;7.30;;;;;;;;;;4988632;28;20257;-91
2024/03/17 17:14:35;;;;;;;6.20;2.92;;;;;;;;;;4975007;28;20193;-91
2024/03/17 17:17:44;;;;;;;7.43;2.85;;;;;;;;;;4972529;28;20765;-87
2024/03/17 17:20:49;;;;;;;8.20;2.60;;;;;;;;;;4991611;28;20240;-90
2024/03/17 17:23:56;;;;;;;5.78;2.70;;;;;;;;;;4990626;28;20205;-89
2024/03/17 17:27:01;;;;;;;6.85;2.75;;;;;;;;;;4993586;28;20185;-89
2024/03/17 17:30:07;;;;;;;6.30;2.65;;;;;;;;;;4991653;28;20220;-90
2024/03/17 17:33:12;;;;;;;6.95;2.88;;;;;;;;;;4989529;28;20236;-89
2024/03/17 17:36:18;;;;;;;5.60;2.88;;;;;;;;;;4990446;28;20263;-90
2024/03/17 17:39:24;;;;;;;8.23;3.00;;;;;;;;;;4991348;28;20192;-89
2024/03/17 17:42:29;;;;;;;11.07;3.55;;;;;;;;;;4979121;28;20200;-89
2024/03/17 17:45:34;;;;;;;10.20;3.42;;;;;;;;;;4974020;28;20185;-90
2024/03/17 17:48:40;;;;;;;7.88;3.70;;;;;;;;;;4983753;28;20213;-89
2024/03/17 17:51:45;;;;;;;10.82;4.32;;;;;;;;;;4983594;28;20193;-89
2024/03/17 17:54:53;;;;;;;7.90;4.60;;;;;;;;;;4984399;28;20225;-90
2024/03/17 17:58:00;;;;;;;14.20;5.47;;;;;;;;;;4972304;28;20313;-89
2024/03/17 18:01:06;;;;;;;14.48;5.13;;;;;;;;;;4990401;28;20215;-88
2024/03/17 18:04:12;;;;;;;11.57;5.07;;;;;;;;;;4971398;28;20306;-90
2024/03/17 18:07:17;;;;;;;11.73;5.18;;;;;;;;;;4970513;28;20576;-87
2024/03/17 18:10:24;;;;;;;13.38;6.40;;;;;;;;;;4973597;28;20253;-89
2024/03/17 18:13:30;;;;;;;16.13;6.38;;;;;;;;;;4994969;28;20196;-90
2024/03/17 18:16:39;;;;;;;18.75;6.22;;;;;;;;;;5006444;28;20200;-89
2024/03/17 18:19:45;;;;;;;10.35;4.93;;;;;;;;;;4994413;28;20208;-89
2024/03/17 18:22:51;;;;;;;9.70;4.97;;;;;;;;;;4992903;28;20585;-88
2024/03/17 18:25:58;;;;;;;15.20;6.00;;;;;;;;;;4992142;28;20939;-88
2024/03/17 18:29:04;;;;;;;9.95;4.95;;;;;;;;;;4990352;28;20244;-88
2024/03/17 18:32:10;;;;;;;11.32;4.90;;;;;;;;;;4991884;28;20288;-89
2024/03/17 18:35:15;;;;;;;11.27;5.45;;;;;;;;;;4972828;28;20230;-90
2024/03/17 18:38:20;;;;;;;17.52;6.35;;;;;;;;;;4985698;28;20208;-89
2024/03/17 18:41:27;;;;;;;13.88;5.65;;;;;;;;;;4992676;28;20290;-88
2024/03/17 18:44:33;;;;;;;13.52;5.40;;;;;;;;;;5009566;28;20200;-89
2024/03/17 18:47:39;;;;;;;23.08;9.07;;;;;;;;;;4997277;28;20207;-88
2024/03/17 18:50:44;;;;;;;17.67;8.52;;;;;;;;;;4995207;28;20221;-89
2024/03/17 18:53:53;;;;;;;13.88;6.00;;;;;;;;;;4989032;28;20225;-90
2024/03/17 18:57:01;;;;;;;13.38;5.20;;;;;;;;;;4993918;28;20201;-88
2024/03/17 19:00:13;;;;;;;15.38;6.85;;;;;;;;;;4993764;28;20220;-88
2024/03/17 19:03:19;;;;;;;16.60;5.80;;;;;;;;;;4995673;28;20257;-88
2024/03/17 19:06:24;;;;;;;26.85;10.13;;;;;;;;;;5008549;28;20192;-88
2024/03/17 19:09:29;;;;;;;16.08;8.15;;;;;;;;;;5014712;28;20220;-90
2024/03/17 19:12:37;;;;;;;16.05;7.28;;;;;;;;;;5006222;28;20212;-90
2024/03/17 19:15:42;;;;;;;14.23;6.38;;;;;;;;;;4988895;28;20246;-88
2024/03/17 19:18:48;;;;;;;17.25;6.72;;;;;;;;;;4985777;28;20202;-88